Beaver Islander — WT5906 — position and weather

sailwx.info

Track history (hours):
 
Tides and Currents Weather Stations Pressure Air Temp Water Temp Dewpoint Dewpoint Depression Visibility Wind Speed Wind Dir Waves Ship Positions

Beaver Islander

Owner: BEAVER ISLAND BOAT CO, CHARLEVOIX, MI. More information available from US FCC via Universal Licensing System and Coast Guard Vessel Documentation Center.

Last reported at 2015-Aug-24 00:33 UTC. Time now 2015-Aug-30 05:51 UTC.
Position N 45°42' W 085°28'.

Length 28 m; draft 3 m.

Type: Passenger vessel. MMSI: 366936060.

Date/timePositionNaut miles runAvg speedWind from/ knotsBaromVisibWave heightAir tempDewpointWater temp
2015-Aug-24 00:33N 45°42' W 085°28'1211.6
2015-Aug-23 23:33N 45°31' W 085°22'1312.6
2015-Aug-23 22:33N 45°19' W 085°15'2 2.3
2015-Aug-23 21:33N 45°21' W 085°17'1313.0
2015-Aug-23 20:33N 45°33' W 085°24'1211.7
2015-Aug-23 19:34N 45°44' W 085°30'1 1.1
2015-Aug-23 18:33N 45°45' W 085°31'6 0.3
2015-Aug-23 00:33N 45°40' W 085°27'1313.2
2015-Aug-22 23:33N 45°27' W 085°20'9 9.0
2015-Aug-22 22:33N 45°19' W 085°15'4 3.6
2015-Aug-22 21:34N 45°22' W 085°17'1312.8
2015-Aug-22 20:33N 45°34' W 085°24'1111.5
2015-Aug-22 19:33N 45°45' W 085°31'5 4.9
2015-Aug-22 18:34N 45°41' W 085°27'1312.8
2015-Aug-22 17:34N 45°29' W 085°21'1010.2
2015-Aug-22 16:33N 45°19' W 085°15'4 4.0
2015-Aug-22 15:33N 45°23' W 085°18'1313.0
2015-Aug-22 14:33N 45°35' W 085°24'1110.4
2015-Aug-22 13:30N 45°45' W 085°31'0 0.0
2015-Aug-22 12:31N 45°45' W 085°31'7 0.5
2015-Aug-22 00:33N 45°39' W 085°26'1212.2
2015-Aug-21 23:33N 45°28' W 085°20'9 9.2
2015-Aug-21 22:33N 45°19' W 085°15'0 0.0
2015-Aug-21 21:33N 45°19' W 085°15'8 7.9
2015-Aug-21 20:33N 45°26' W 085°20'10 9.7
2015-Aug-21 19:33N 45°35' W 085°25'10 9.5
2015-Aug-21 18:33N 45°44' W 085°30'1 0.9
2015-Aug-21 17:32N 45°45' W 085°31'0 0.0
2015-Aug-21 16:30N 45°45' W 085°31'  
2015-Aug-17 01:23N 45°45' W 085°31'7 8.0
2015-Aug-17 00:33N 45°39' W 085°27'1312.6
2015-Aug-16 23:33N 45°27' W 085°21'9 8.8
2015-Aug-16 22:33N 45°19' W 085°15'4 4.1
2015-Aug-16 21:34N 45°23' W 085°18'1312.9
2015-Aug-16 20:33N 45°35' W 085°24'1110.9
2015-Aug-16 19:33N 45°45' W 085°31'0 0.0
2015-Aug-16 18:19N 45°45' W 085°31'2 0.1
2015-Aug-16 00:33N 45°43' W 085°29'1110.6
2015-Aug-15 23:33N 45°33' W 085°23'1212.2
2015-Aug-15 22:34N 45°22' W 085°17'3 3.0
2015-Aug-15 21:33N 45°19' W 085°15'1312.6
2015-Aug-15 20:33N 45°31' W 085°22'1312.9
2015-Aug-15 19:33N 45°43' W 085°29'0 0.4
2015-Aug-15 18:33N 45°43' W 085°29'1514.9
2015-Aug-15 17:34N 45°29' W 085°21'1111.1
2015-Aug-15 16:33N 45°19' W 085°15'4 3.7
2015-Aug-15 15:33N 45°22' W 085°18'1313.0
2015-Aug-15 14:33N 45°35' W 085°24'1111.2
2015-Aug-15 13:33N 45°45' W 085°31'0 0.0
2015-Aug-15 12:33N 45°45' W 085°31'6 0.5
2015-Aug-15 00:33N 45°39' W 085°27'1312.6
2015-Aug-14 23:33N 45°27' W 085°20'9 9.0
2015-Aug-14 22:33N 45°19' W 085°15'5 5.1
2015-Aug-14 21:33N 45°24' W 085°18'1212.1
2015-Aug-14 20:33N 45°35' W 085°24'11 9.9
2015-Aug-14 19:28N 45°45' W 085°31'0 0.0
2015-Aug-14 18:28N 45°45' W 085°31'  
Track history (hours):
 
Tides and Currents Weather Stations Pressure Air Temp Water Temp Dewpoint Dewpoint Depression Visibility Wind Speed Wind Dir Waves Ship Positions

Beaver Islander

Owner: BEAVER ISLAND BOAT CO, CHARLEVOIX, MI. More information available from US FCC via Universal Licensing System and Coast Guard Vessel Documentation Center.

Last reported at 2015-Aug-24 00:33 UTC. Time now 2015-Aug-30 05:51 UTC.
Position N 45°42' W 085°28'.

Length 28 m; draft 3 m.

Type: Passenger vessel. MMSI: 366936060.

Date/timePositionNaut miles runAvg speedWind from/ knotsBaromVisibWave heightAir tempDewpointWater temp
2015-Aug-24 00:33N 45°42' W 085°28'1211.6
2015-Aug-23 23:33N 45°31' W 085°22'1312.6
2015-Aug-23 22:33N 45°19' W 085°15'2 2.3
2015-Aug-23 21:33N 45°21' W 085°17'1313.0
2015-Aug-23 20:33N 45°33' W 085°24'1211.7
2015-Aug-23 19:34N 45°44' W 085°30'1 1.1
2015-Aug-23 18:33N 45°45' W 085°31'6 0.3
2015-Aug-23 00:33N 45°40' W 085°27'1313.2
2015-Aug-22 23:33N 45°27' W 085°20'9 9.0
2015-Aug-22 22:33N 45°19' W 085°15'4 3.6
2015-Aug-22 21:34N 45°22' W 085°17'1312.8
2015-Aug-22 20:33N 45°34' W 085°24'1111.5
2015-Aug-22 19:33N 45°45' W 085°31'5 4.9
2015-Aug-22 18:34N 45°41' W 085°27'1312.8
2015-Aug-22 17:34N 45°29' W 085°21'1010.2
2015-Aug-22 16:33N 45°19' W 085°15'4 4.0
2015-Aug-22 15:33N 45°23' W 085°18'1313.0
2015-Aug-22 14:33N 45°35' W 085°24'1110.4
2015-Aug-22 13:30N 45°45' W 085°31'0 0.0
2015-Aug-22 12:31N 45°45' W 085°31'7 0.5
2015-Aug-22 00:33N 45°39' W 085°26'1212.2
2015-Aug-21 23:33N 45°28' W 085°20'9 9.2
2015-Aug-21 22:33N 45°19' W 085°15'0 0.0
2015-Aug-21 21:33N 45°19' W 085°15'8 7.9
2015-Aug-21 20:33N 45°26' W 085°20'10 9.7
2015-Aug-21 19:33N 45°35' W 085°25'10 9.5
2015-Aug-21 18:33N 45°44' W 085°30'1 0.9
2015-Aug-21 17:32N 45°45' W 085°31'0 0.0
2015-Aug-21 16:30N 45°45' W 085°31'  
2015-Aug-17 01:23N 45°45' W 085°31'7 8.0
2015-Aug-17 00:33N 45°39' W 085°27'1312.6
2015-Aug-16 23:33N 45°27' W 085°21'9 8.8
2015-Aug-16 22:33N 45°19' W 085°15'4 4.1
2015-Aug-16 21:34N 45°23' W 085°18'1312.9
2015-Aug-16 20:33N 45°35' W 085°24'1110.9
2015-Aug-16 19:33N 45°45' W 085°31'0 0.0
2015-Aug-16 18:19N 45°45' W 085°31'2 0.1
2015-Aug-16 00:33N 45°43' W 085°29'1110.6
2015-Aug-15 23:33N 45°33' W 085°23'1212.2
2015-Aug-15 22:34N 45°22' W 085°17'3 3.0
2015-Aug-15 21:33N 45°19' W 085°15'1312.6
2015-Aug-15 20:33N 45°31' W 085°22'1312.9
2015-Aug-15 19:33N 45°43' W 085°29'0 0.4
2015-Aug-15 18:33N 45°43' W 085°29'1514.9
2015-Aug-15 17:34N 45°29' W 085°21'1111.1
2015-Aug-15 16:33N 45°19' W 085°15'4 3.7
2015-Aug-15 15:33N 45°22' W 085°18'1313.0
2015-Aug-15 14:33N 45°35' W 085°24'1111.2
2015-Aug-15 13:33N 45°45' W 085°31'0 0.0
2015-Aug-15 12:33N 45°45' W 085°31'6 0.5
2015-Aug-15 00:33N 45°39' W 085°27'1312.6
2015-Aug-14 23:33N 45°27' W 085°20'9 9.0
2015-Aug-14 22:33N 45°19' W 085°15'5 5.1
2015-Aug-14 21:33N 45°24' W 085°18'1212.1
2015-Aug-14 20:33N 45°35' W 085°24'11 9.9
2015-Aug-14 19:28N 45°45' W 085°31'0 0.0
2015-Aug-14 18:28N 45°45' W 085°31'  

Dump ship's entire track history